sensor_id;sensor_type;location;lat;lon;timestamp;temperature;humidity
43991;DHT22;29654;50.784;20.604;2024-03-29T00:01:47;15.50;48.10
43991;DHT22;29654;50.784;20.604;2024-03-29T00:06:52;15.30;48.90
43991;DHT22;29654;50.784;20.604;2024-03-29T00:11:53;15.10;49.30
43991;DHT22;29654;50.784;20.604;2024-03-29T00:16:56;14.90;49.40
43991;DHT22;29654;50.784;20.604;2024-03-29T00:22:00;14.70;50.00
43991;DHT22;29654;50.784;20.604;2024-03-29T00:27:01;14.50;50.20
43991;DHT22;29654;50.784;20.604;2024-03-29T00:32:04;14.20;50.60
43991;DHT22;29654;50.784;20.604;2024-03-29T00:37:08;14.10;50.80
43991;DHT22;29654;50.784;20.604;2024-03-29T00:42:10;13.90;51.00
43991;DHT22;29654;50.784;20.604;2024-03-29T00:47:12;13.70;51.00
43991;DHT22;29654;50.784;20.604;2024-03-29T00:52:15;13.60;51.10
43991;DHT22;29654;50.784;20.604;2024-03-29T00:57:17;13.50;51.60
43991;DHT22;29654;50.784;20.604;2024-03-29T01:02:19;13.50;51.40
43991;DHT22;29654;50.784;20.604;2024-03-29T01:07:22;13.40;51.40
43991;DHT22;29654;50.784;20.604;2024-03-29T01:12:24;13.30;51.70
43991;DHT22;29654;50.784;20.604;2024-03-29T01:17:26;13.30;51.50
43991;DHT22;29654;50.784;20.604;2024-03-29T01:22:29;13.30;51.70
43991;DHT22;29654;50.784;20.604;2024-03-29T01:27:31;13.30;51.70
43991;DHT22;29654;50.784;20.604;2024-03-29T01:32:33;13.30;51.70
43991;DHT22;29654;50.784;20.604;2024-03-29T01:37:36;13.40;51.80
43991;DHT22;29654;50.784;20.604;2024-03-29T01:42:38;13.40;51.90
43991;DHT22;29654;50.784;20.604;2024-03-29T01:47:40;13.50;51.70
43991;DHT22;29654;50.784;20.604;2024-03-29T01:52:45;13.60;51.70
43991;DHT22;29654;50.784;20.604;2024-03-29T01:57:49;13.60;51.80
43991;DHT22;29654;50.784;20.604;2024-03-29T02:02:52;13.70;51.60
43991;DHT22;29654;50.784;20.604;2024-03-29T02:07:57;13.70;51.50
43991;DHT22;29654;50.784;20.604;2024-03-29T02:13:00;13.70;51.90
43991;DHT22;29654;50.784;20.604;2024-03-29T02:18:04;13.70;51.90
43991;DHT22;29654;50.784;20.604;2024-03-29T02:23:11;13.80;52.00
43991;DHT22;29654;50.784;20.604;2024-03-29T02:28:16;13.90;52.30
43991;DHT22;29654;50.784;20.604;2024-03-29T02:33:21;13.90;52.10
43991;DHT22;29654;50.784;20.604;2024-03-29T02:38:24;13.90;51.90
43991;DHT22;29654;50.784;20.604;2024-03-29T02:43:28;13.90;51.70
43991;DHT22;29654;50.784;20.604;2024-03-29T02:48:31;13.90;51.70
43991;DHT22;29654;50.784;20.604;2024-03-29T02:53:34;13.90;51.40
43991;DHT22;29654;50.784;20.604;2024-03-29T02:58:38;13.80;51.30
43991;DHT22;29654;50.784;20.604;2024-03-29T03:03:41;13.80;51.50
43991;DHT22;29654;50.784;20.604;2024-03-29T03:08:44;13.70;51.30
43991;DHT22;29654;50.784;20.604;2024-03-29T03:14:06;13.60;51.50
43991;DHT22;29654;50.784;20.604;2024-03-29T03:19:08;13.50;51.60
43991;DHT22;29654;50.784;20.604;2024-03-29T03:24:11;13.40;51.60
43991;DHT22;29654;50.784;20.604;2024-03-29T03:29:16;13.40;51.70
43991;DHT22;29654;50.784;20.604;2024-03-29T03:34:19;13.30;51.80
43991;DHT22;29654;50.784;20.604;2024-03-29T03:39:22;13.30;51.80
43991;DHT22;29654;50.784;20.604;2024-03-29T03:44:26;13.20;51.80
43991;DHT22;29654;50.784;20.604;2024-03-29T03:49:29;13.20;52.50
43991;DHT22;29654;50.784;20.604;2024-03-29T03:54:32;13.10;51.70
43991;DHT22;29654;50.784;20.604;2024-03-29T03:59:37;13.10;51.80
43991;DHT22;29654;50.784;20.604;2024-03-29T04:04:39;13.00;51.90
43991;DHT22;29654;50.784;20.604;2024-03-29T04:09:42;13.00;51.90
43991;DHT22;29654;50.784;20.604;2024-03-29T04:14:47;12.90;51.80
43991;DHT22;29654;50.784;20.604;2024-03-29T04:19:50;12.90;52.40
43991;DHT22;29654;50.784;20.604;2024-03-29T04:24:53;12.80;51.80
43991;DHT22;29654;50.784;20.604;2024-03-29T04:29:58;12.80;52.00
43991;DHT22;29654;50.784;20.604;2024-03-29T04:35:01;12.70;52.10
43991;DHT22;29654;50.784;20.604;2024-03-29T04:40:05;12.70;52.00
43991;DHT22;29654;50.784;20.604;2024-03-29T04:45:10;12.70;52.20
43991;DHT22;29654;50.784;20.604;2024-03-29T04:50:13;12.60;52.20
43991;DHT22;29654;50.784;20.604;2024-03-29T04:55:16;12.60;52.10
43991;DHT22;29654;50.784;20.604;2024-03-29T05:00:21;12.60;52.00
43991;DHT22;29654;50.784;20.604;2024-03-29T05:05:24;12.60;52.10
43991;DHT22;29654;50.784;20.604;2024-03-29T05:10:27;12.50;52.00
43991;DHT22;29654;50.784;20.604;2024-03-29T05:15:31;12.60;52.80
43991;DHT22;29654;50.784;20.604;2024-03-29T05:20:34;12.70;53.30
43991;DHT22;29654;50.784;20.604;2024-03-29T05:25:37;12.90;53.10
43991;DHT22;29654;50.784;20.604;2024-03-29T05:30:41;13.10;53.10
43991;DHT22;29654;50.784;20.604;2024-03-29T05:35:45;13.20;53.10
43991;DHT22;29654;50.784;20.604;2024-03-29T05:40:48;13.30;52.90
43991;DHT22;29654;50.784;20.604;2024-03-29T05:45:54;13.40;52.80
43991;DHT22;29654;50.784;20.604;2024-03-29T05:50:57;13.50;53.10
43991;DHT22;29654;50.784;20.604;2024-03-29T05:55:59;13.60;52.90
43991;DHT22;29654;50.784;20.604;2024-03-29T06:01:04;13.70;52.90
43991;DHT22;29654;50.784;20.604;2024-03-29T06:06:07;13.80;53.00
43991;DHT22;29654;50.784;20.604;2024-03-29T06:11:13;13.90;52.80
43991;DHT22;29654;50.784;20.604;2024-03-29T06:16:17;14.00;52.80
43991;DHT22;29654;50.784;20.604;2024-03-29T06:21:39;14.20;52.90
43991;DHT22;29654;50.784;20.604;2024-03-29T06:26:43;14.30;52.80
43991;DHT22;29654;50.784;20.604;2024-03-29T06:31:47;14.40;52.70
43991;DHT22;29654;50.784;20.604;2024-03-29T06:36:50;14.50;52.70
43991;DHT22;29654;50.784;20.604;2024-03-29T06:41:54;14.70;52.70
43991;DHT22;29654;50.784;20.604;2024-03-29T06:46:58;14.80;52.70
43991;DHT22;29654;50.784;20.604;2024-03-29T06:52:01;15.00;52.70
43991;DHT22;29654;50.784;20.604;2024-03-29T06:57:05;15.20;52.50
43991;DHT22;29654;50.784;20.604;2024-03-29T07:02:10;15.30;52.40
43991;DHT22;29654;50.784;20.604;2024-03-29T07:07:13;15.50;52.20
43991;DHT22;29654;50.784;20.604;2024-03-29T07:12:17;15.70;52.00
43991;DHT22;29654;50.784;20.604;2024-03-29T07:17:25;15.80;51.80
43991;DHT22;29654;50.784;20.604;2024-03-29T07:22:30;16.00;51.70
43991;DHT22;29654;50.784;20.604;2024-03-29T07:27:35;16.10;51.50
43991;DHT22;29654;50.784;20.604;2024-03-29T07:32:41;16.30;51.50
43991;DHT22;29654;50.784;20.604;2024-03-29T07:37:44;16.50;51.20
43991;DHT22;29654;50.784;20.604;2024-03-29T07:42:50;16.60;51.10
43991;DHT22;29654;50.784;20.604;2024-03-29T07:47:54;16.80;50.90
43991;DHT22;29654;50.784;20.604;2024-03-29T07:52:57;17.00;50.80
43991;DHT22;29654;50.784;20.604;2024-03-29T07:58:00;17.20;50.50
43991;DHT22;29654;50.784;20.604;2024-03-29T08:03:05;17.40;50.20
43991;DHT22;29654;50.784;20.604;2024-03-29T08:08:08;17.50;50.00
43991;DHT22;29654;50.784;20.604;2024-03-29T08:13:11;17.70;49.80
43991;DHT22;29654;50.784;20.604;2024-03-29T08:18:19;17.90;49.50
43991;DHT22;29654;50.784;20.604;2024-03-29T08:23:23;18.10;49.10
43991;DHT22;29654;50.784;20.604;2024-03-29T08:28:26;18.20;48.90
43991;DHT22;29654;50.784;20.604;2024-03-29T08:33:35;18.40;48.60
43991;DHT22;29654;50.784;20.604;2024-03-29T08:38:41;18.50;48.00
43991;DHT22;29654;50.784;20.604;2024-03-29T08:43:48;18.60;48.00
43991;DHT22;29654;50.784;20.604;2024-03-29T08:48:54;18.70;47.70
43991;DHT22;29654;50.784;20.604;2024-03-29T08:53:57;18.70;47.40
43991;DHT22;29654;50.784;20.604;2024-03-29T08:59:00;18.80;47.50
43991;DHT22;29654;50.784;20.604;2024-03-29T09:04:10;18.90;47.40
43991;DHT22;29654;50.784;20.604;2024-03-29T09:09:14;19.00;46.90
43991;DHT22;29654;50.784;20.604;2024-03-29T09:14:17;19.20;47.10
43991;DHT22;29654;50.784;20.604;2024-03-29T09:19:21;19.40;46.80
43991;DHT22;29654;50.784;20.604;2024-03-29T09:24:25;19.50;46.50
43991;DHT22;29654;50.784;20.604;2024-03-29T09:29:28;19.60;46.50
43991;DHT22;29654;50.784;20.604;2024-03-29T09:34:33;19.80;46.20
43991;DHT22;29654;50.784;20.604;2024-03-29T09:39:36;19.90;45.40
43991;DHT22;29654;50.784;20.604;2024-03-29T09:44:39;20.00;45.50
43991;DHT22;29654;50.784;20.604;2024-03-29T09:49:44;20.20;45.20
43991;DHT22;29654;50.784;20.604;2024-03-29T09:54:48;20.30;44.30
43991;DHT22;29654;50.784;20.604;2024-03-29T09:59:51;20.40;44.30
43991;DHT22;29654;50.784;20.604;2024-03-29T10:04:56;20.40;44.10
43991;DHT22;29654;50.784;20.604;2024-03-29T10:10:00;20.50;43.90
43991;DHT22;29654;50.784;20.604;2024-03-29T10:15:04;20.60;43.80
43991;DHT22;29654;50.784;20.604;2024-03-29T10:20:16;20.70;43.40
43991;DHT22;29654;50.784;20.604;2024-03-29T10:25:19;20.80;43.20
43991;DHT22;29654;50.784;20.604;2024-03-29T10:30:25;20.90;43.50
43991;DHT22;29654;50.784;20.604;2024-03-29T10:35:30;21.00;43.10
43991;DHT22;29654;50.784;20.604;2024-03-29T10:40:34;21.10;42.60
43991;DHT22;29654;50.784;20.604;2024-03-29T10:45:37;21.20;42.50
43991;DHT22;29654;50.784;20.604;2024-03-29T10:50:44;21.30;42.30
43991;DHT22;29654;50.784;20.604;2024-03-29T10:55:52;21.40;41.90
43991;DHT22;29654;50.784;20.604;2024-03-29T11:01:00;21.50;42.10
43991;DHT22;29654;50.784;20.604;2024-03-29T11:06:09;21.60;41.40
43991;DHT22;29654;50.784;20.604;2024-03-29T11:11:18;21.60;40.90
43991;DHT22;29654;50.784;20.604;2024-03-29T11:16:26;21.70;41.10
43991;DHT22;29654;50.784;20.604;2024-03-29T11:21:30;21.80;40.80
43991;DHT22;29654;50.784;20.604;2024-03-29T11:26:33;21.80;40.60
43991;DHT22;29654;50.784;20.604;2024-03-29T11:31:38;21.90;40.80
43991;DHT22;29654;50.784;20.604;2024-03-29T11:36:45;22.00;40.30
43991;DHT22;29654;50.784;20.604;2024-03-29T11:41:49;22.10;39.90
43991;DHT22;29654;50.784;20.604;2024-03-29T11:46:54;22.20;40.40
43991;DHT22;29654;50.784;20.604;2024-03-29T11:52:05;22.30;39.90
43991;DHT22;29654;50.784;20.604;2024-03-29T11:57:09;22.40;38.90
43991;DHT22;29654;50.784;20.604;2024-03-29T12:02:13;22.50;39.20
43991;DHT22;29654;50.784;20.604;2024-03-29T12:07:18;22.50;38.00
43991;DHT22;29654;50.784;20.604;2024-03-29T12:12:23;22.60;38.30
43991;DHT22;29654;50.784;20.604;2024-03-29T12:17:26;22.60;38.50
43991;DHT22;29654;50.784;20.604;2024-03-29T12:22:31;22.70;38.30
43991;DHT22;29654;50.784;20.604;2024-03-29T12:27:35;22.70;37.60
43991;DHT22;29654;50.784;20.604;2024-03-29T12:32:38;22.60;37.40
43991;DHT22;29654;50.784;20.604;2024-03-29T12:37:49;22.50;37.70
43991;DHT22;29654;50.784;20.604;2024-03-29T12:42:53;22.50;37.00
43991;DHT22;29654;50.784;20.604;2024-03-29T12:47:55;22.50;37.90
43991;DHT22;29654;50.784;20.604;2024-03-29T12:53:02;22.50;37.60
43991;DHT22;29654;50.784;20.604;2024-03-29T12:58:09;22.60;37.10
43991;DHT22;29654;50.784;20.604;2024-03-29T13:03:12;22.70;36.90
43991;DHT22;29654;50.784;20.604;2024-03-29T13:08:17;22.70;36.50
43991;DHT22;29654;50.784;20.604;2024-03-29T13:13:19;22.70;36.50
43991;DHT22;29654;50.784;20.604;2024-03-29T13:18:22;22.70;36.60
43991;DHT22;29654;50.784;20.604;2024-03-29T13:23:27;22.70;36.40
43991;DHT22;29654;50.784;20.604;2024-03-29T13:28:31;22.70;36.20
43991;DHT22;29654;50.784;20.604;2024-03-29T13:33:34;22.70;36.40
43991;DHT22;29654;50.784;20.604;2024-03-29T13:38:39;22.70;36.20
43991;DHT22;29654;50.784;20.604;2024-03-29T13:43:42;22.80;36.20
43991;DHT22;29654;50.784;20.604;2024-03-29T13:48:45;22.80;36.20
43991;DHT22;29654;50.784;20.604;2024-03-29T13:53:51;22.90;36.00
43991;DHT22;29654;50.784;20.604;2024-03-29T13:58:56;23.10;35.40
43991;DHT22;29654;50.784;20.604;2024-03-29T14:04:00;23.10;35.60
43991;DHT22;29654;50.784;20.604;2024-03-29T14:09:05;23.20;35.60
43991;DHT22;29654;50.784;20.604;2024-03-29T14:14:10;23.30;34.90
43991;DHT22;29654;50.784;20.604;2024-03-29T14:19:14;23.30;35.00
43991;DHT22;29654;50.784;20.604;2024-03-29T14:24:19;23.40;34.80
43991;DHT22;29654;50.784;20.604;2024-03-29T14:29:24;23.40;34.40
43991;DHT22;29654;50.784;20.604;2024-03-29T14:34:27;23.40;34.50
43991;DHT22;29654;50.784;20.604;2024-03-29T14:39:38;23.40;34.60
43991;DHT22;29654;50.784;20.604;2024-03-29T14:44:45;23.50;34.10
43991;DHT22;29654;50.784;20.604;2024-03-29T14:49:48;23.50;34.60
43991;DHT22;29654;50.784;20.604;2024-03-29T14:54:53;23.50;34.50
43991;DHT22;29654;50.784;20.604;2024-03-29T14:59:57;23.50;34.30
43991;DHT22;29654;50.784;20.604;2024-03-29T15:05:00;23.50;34.30
43991;DHT22;29654;50.784;20.604;2024-03-29T15:10:08;23.50;34.20
43991;DHT22;29654;50.784;20.604;2024-03-29T15:15:12;23.60;34.00
43991;DHT22;29654;50.784;20.604;2024-03-29T15:20:15;23.60;34.30
43991;DHT22;29654;50.784;20.604;2024-03-29T15:25:20;23.60;34.20
43991;DHT22;29654;50.784;20.604;2024-03-29T15:30:23;23.60;33.90
43991;DHT22;29654;50.784;20.604;2024-03-29T15:35:26;23.60;34.10
43991;DHT22;29654;50.784;20.604;2024-03-29T15:40:30;23.60;34.00
43991;DHT22;29654;50.784;20.604;2024-03-29T15:45:33;23.60;33.90
43991;DHT22;29654;50.784;20.604;2024-03-29T15:50:37;23.60;34.00
43991;DHT22;29654;50.784;20.604;2024-03-29T15:55:44;23.60;33.90
43991;DHT22;29654;50.784;20.604;2024-03-29T16:00:47;23.70;33.90
43991;DHT22;29654;50.784;20.604;2024-03-29T16:05:50;23.60;33.70
43991;DHT22;29654;50.784;20.604;2024-03-29T16:10:58;23.60;33.60
43991;DHT22;29654;50.784;20.604;2024-03-29T16:16:08;23.60;33.30
43991;DHT22;29654;50.784;20.604;2024-03-29T16:21:17;23.50;33.40
43991;DHT22;29654;50.784;20.604;2024-03-29T16:26:25;23.50;33.40
43991;DHT22;29654;50.784;20.604;2024-03-29T16:31:31;23.40;33.30
43991;DHT22;29654;50.784;20.604;2024-03-29T16:36:36;23.30;33.60
43991;DHT22;29654;50.784;20.604;2024-03-29T16:41:41;23.10;34.20
43991;DHT22;29654;50.784;20.604;2024-03-29T16:46:47;23.00;34.40
43991;DHT22;29654;50.784;20.604;2024-03-29T16:51:50;22.80;34.60
43991;DHT22;29654;50.784;20.604;2024-03-29T16:56:54;22.60;34.80
43991;DHT22;29654;50.784;20.604;2024-03-29T17:01:57;22.30;35.00
43991;DHT22;29654;50.784;20.604;2024-03-29T17:07:02;22.10;35.10
43991;DHT22;29654;50.784;20.604;2024-03-29T17:12:07;21.80;35.60
43991;DHT22;29654;50.784;20.604;2024-03-29T17:17:11;21.50;36.00
43991;DHT22;29654;50.784;20.604;2024-03-29T17:22:15;21.20;36.20
43991;DHT22;29654;50.784;20.604;2024-03-29T17:27:19;20.90;36.40
43991;DHT22;29654;50.784;20.604;2024-03-29T17:32:22;20.60;36.80
43991;DHT22;29654;50.784;20.604;2024-03-29T17:37:25;20.30;37.00
43991;DHT22;29654;50.784;20.604;2024-03-29T17:42:29;20.00;37.20
43991;DHT22;29654;50.784;20.604;2024-03-29T17:47:32;19.70;37.10
43991;DHT22;29654;50.784;20.604;2024-03-29T17:52:35;19.50;37.40
43991;DHT22;29654;50.784;20.604;2024-03-29T17:57:40;19.40;37.70
43991;DHT22;29654;50.784;20.604;2024-03-29T18:02:43;19.40;37.80
43991;DHT22;29654;50.784;20.604;2024-03-29T18:07:46;19.30;37.90
43991;DHT22;29654;50.784;20.604;2024-03-29T18:12:50;19.30;38.10
43991;DHT22;29654;50.784;20.604;2024-03-29T18:17:53;19.30;38.10
43991;DHT22;29654;50.784;20.604;2024-03-29T18:22:57;19.30;38.20
43991;DHT22;29654;50.784;20.604;2024-03-29T18:28:02;19.20;38.20
43991;DHT22;29654;50.784;20.604;2024-03-29T18:33:06;19.20;38.30
43991;DHT22;29654;50.784;20.604;2024-03-29T18:38:09;19.10;38.40
43991;DHT22;29654;50.784;20.604;2024-03-29T18:43:13;19.20;38.80
43991;DHT22;29654;50.784;20.604;2024-03-29T18:48:16;19.10;38.90
43991;DHT22;29654;50.784;20.604;2024-03-29T18:53:19;19.10;38.90
43991;DHT22;29654;50.784;20.604;2024-03-29T18:58:24;19.10;39.00
43991;DHT22;29654;50.784;20.604;2024-03-29T19:03:28;19.00;39.10
43991;DHT22;29654;50.784;20.604;2024-03-29T19:08:30;18.90;39.10
43991;DHT22;29654;50.784;20.604;2024-03-29T19:13:35;18.80;39.20
43991;DHT22;29654;50.784;20.604;2024-03-29T19:18:38;18.70;39.30
43991;DHT22;29654;50.784;20.604;2024-03-29T19:23:41;18.60;39.40
43991;DHT22;29654;50.784;20.604;2024-03-29T19:28:45;18.50;39.70
43991;DHT22;29654;50.784;20.604;2024-03-29T19:33:48;18.50;40.00
43991;DHT22;29654;50.784;20.604;2024-03-29T19:38:51;18.40;40.00
43991;DHT22;29654;50.784;20.604;2024-03-29T19:43:56;18.30;40.10
43991;DHT22;29654;50.784;20.604;2024-03-29T19:48:59;18.10;40.30
43991;DHT22;29654;50.784;20.604;2024-03-29T19:54:03;17.90;40.30
43991;DHT22;29654;50.784;20.604;2024-03-29T19:59:08;17.80;40.50
43991;DHT22;29654;50.784;20.604;2024-03-29T20:04:10;17.70;41.00
43991;DHT22;29654;50.784;20.604;2024-03-29T20:09:13;17.60;41.20
43991;DHT22;29654;50.784;20.604;2024-03-29T20:14:18;17.50;42.00
43991;DHT22;29654;50.784;20.604;2024-03-29T20:19:22;17.50;41.70
43991;DHT22;29654;50.784;20.604;2024-03-29T20:24:27;17.40;41.80
43991;DHT22;29654;50.784;20.604;2024-03-29T20:29:34;17.30;42.00
43991;DHT22;29654;50.784;20.604;2024-03-29T20:34:38;17.40;42.30
43991;DHT22;29654;50.784;20.604;2024-03-29T20:39:41;17.40;42.50
43991;DHT22;29654;50.784;20.604;2024-03-29T20:44:47;17.30;42.50
43991;DHT22;29654;50.784;20.604;2024-03-29T20:49:50;17.40;42.80
43991;DHT22;29654;50.784;20.604;2024-03-29T20:54:53;17.30;42.60
43991;DHT22;29654;50.784;20.604;2024-03-29T21:00:01;17.30;42.80
43991;DHT22;29654;50.784;20.604;2024-03-29T21:05:07;17.40;43.70
43991;DHT22;29654;50.784;20.604;2024-03-29T21:10:28;17.30;43.10
43991;DHT22;29654;50.784;20.604;2024-03-29T21:15:33;17.20;43.20
43991;DHT22;29654;50.784;20.604;2024-03-29T21:20:36;17.30;43.40
43991;DHT22;29654;50.784;20.604;2024-03-29T21:25:39;17.20;43.40
43991;DHT22;29654;50.784;20.604;2024-03-29T21:30:45;17.30;43.50
43991;DHT22;29654;50.784;20.604;2024-03-29T21:35:48;17.30;43.60
43991;DHT22;29654;50.784;20.604;2024-03-29T21:40:51;17.30;43.60
43991;DHT22;29654;50.784;20.604;2024-03-29T21:45:56;17.30;43.60
43991;DHT22;29654;50.784;20.604;2024-03-29T21:51:00;17.30;43.70
43991;DHT22;29654;50.784;20.604;2024-03-29T21:56:06;17.30;43.70
43991;DHT22;29654;50.784;20.604;2024-03-29T22:01:14;17.30;43.80
43991;DHT22;29654;50.784;20.604;2024-03-29T22:06:21;17.40;43.90
43991;DHT22;29654;50.784;20.604;2024-03-29T22:11:25;17.30;43.80
43991;DHT22;29654;50.784;20.604;2024-03-29T22:16:31;17.20;43.90
43991;DHT22;29654;50.784;20.604;2024-03-29T22:21:35;17.10;44.00
43991;DHT22;29654;50.784;20.604;2024-03-29T22:26:40;17.10;44.00
43991;DHT22;29654;50.784;20.604;2024-03-29T22:31:45;17.00;44.10
43991;DHT22;29654;50.784;20.604;2024-03-29T22:36:49;17.00;44.40
43991;DHT22;29654;50.784;20.604;2024-03-29T22:41:52;16.90;44.30
43991;DHT22;29654;50.784;20.604;2024-03-29T22:46:57;16.90;44.50
43991;DHT22;29654;50.784;20.604;2024-03-29T22:52:00;16.90;44.70
43991;DHT22;29654;50.784;20.604;2024-03-29T22:57:04;16.80;44.60
43991;DHT22;29654;50.784;20.604;2024-03-29T23:02:08;16.80;44.80
43991;DHT22;29654;50.784;20.604;2024-03-29T23:07:11;16.80;45.00
43991;DHT22;29654;50.784;20.604;2024-03-29T23:12:15;16.80;45.10
43991;DHT22;29654;50.784;20.604;2024-03-29T23:17:20;16.80;45.30
43991;DHT22;29654;50.784;20.604;2024-03-29T23:22:23;16.80;45.40
43991;DHT22;29654;50.784;20.604;2024-03-29T23:27:25;16.80;45.40
43991;DHT22;29654;50.784;20.604;2024-03-29T23:32:30;16.80;45.40
43991;DHT22;29654;50.784;20.604;2024-03-29T23:37:34;16.80;45.60
43991;DHT22;29654;50.784;20.604;2024-03-29T23:42:38;16.70;45.60
43991;DHT22;29654;50.784;20.604;2024-03-29T23:47:44;16.70;45.70
43991;DHT22;29654;50.784;20.604;2024-03-29T23:52:48;16.70;45.90
43991;DHT22;29654;50.784;20.604;2024-03-29T23:57:51;16.70;45.80
